sensor_id;sensor_type;location;lat;lon;timestamp;P1;durP1;ratioP1;P2;durP2;ratioP2
75680;SDS011;64294;49.176;16.626;2023-07-16T00:02:21;8.73;;;5.72;;
75680;SDS011;64294;49.176;16.626;2023-07-16T00:04:47;6.32;;;5.57;;
75680;SDS011;64294;49.176;16.626;2023-07-16T00:07:12;7.47;;;5.95;;
75680;SDS011;64294;49.176;16.626;2023-07-16T00:09:38;7.93;;;5.95;;
75680;SDS011;64294;49.176;16.626;2023-07-16T00:12:03;15.25;;;6.38;;
75680;SDS011;64294;49.176;16.626;2023-07-16T00:14:29;9.98;;;5.78;;
75680;SDS011;64294;49.176;16.626;2023-07-16T00:16:54;11.90;;;7.07;;
75680;SDS011;64294;49.176;16.626;2023-07-16T00:19:20;14.48;;;6.88;;
75680;SDS011;64294;49.176;16.626;2023-07-16T00:21:45;16.20;;;7.43;;
75680;SDS011;64294;49.176;16.626;2023-07-16T00:24:10;18.42;;;7.32;;
75680;SDS011;64294;49.176;16.626;2023-07-16T00:26:36;13.27;;;6.95;;
75680;SDS011;64294;49.176;16.626;2023-07-16T00:29:01;13.43;;;7.97;;
75680;SDS011;64294;49.176;16.626;2023-07-16T00:31:27;14.63;;;8.35;;
75680;SDS011;64294;49.176;16.626;2023-07-16T00:33:52;13.38;;;8.55;;
75680;SDS011;64294;49.176;16.626;2023-07-16T00:36:17;11.43;;;8.45;;
75680;SDS011;64294;49.176;16.626;2023-07-16T00:38:43;10.70;;;8.65;;
75680;SDS011;64294;49.176;16.626;2023-07-16T00:41:10;11.23;;;8.70;;
75680;SDS011;64294;49.176;16.626;2023-07-16T00:43:37;11.38;;;8.60;;
75680;SDS011;64294;49.176;16.626;2023-07-16T00:46:03;10.80;;;8.68;;
75680;SDS011;64294;49.176;16.626;2023-07-16T00:48:28;9.82;;;8.75;;
75680;SDS011;64294;49.176;16.626;2023-07-16T00:50:54;13.48;;;9.32;;
75680;SDS011;64294;49.176;16.626;2023-07-16T00:53:20;13.65;;;9.90;;
75680;SDS011;64294;49.176;16.626;2023-07-16T00:55:46;12.10;;;9.38;;
75680;SDS011;64294;49.176;16.626;2023-07-16T00:58:12;11.82;;;8.75;;
75680;SDS011;64294;49.176;16.626;2023-07-16T01:00:38;10.23;;;9.05;;
75680;SDS011;64294;49.176;16.626;2023-07-16T01:03:05;12.73;;;9.40;;
75680;SDS011;64294;49.176;16.626;2023-07-16T01:08:10;21.23;;;10.10;;
75680;SDS011;64294;49.176;16.626;2023-07-16T01:10:38;17.23;;;9.55;;
75680;SDS011;64294;49.176;16.626;2023-07-16T01:13:04;16.25;;;9.95;;
75680;SDS011;64294;49.176;16.626;2023-07-16T01:15:30;18.02;;;9.50;;
75680;SDS011;64294;49.176;16.626;2023-07-16T01:17:56;18.23;;;9.95;;
75680;SDS011;64294;49.176;16.626;2023-07-16T01:20:21;24.00;;;10.50;;
75680;SDS011;64294;49.176;16.626;2023-07-16T01:26:05;19.52;;;10.23;;
75680;SDS011;64294;49.176;16.626;2023-07-16T01:31:17;13.50;;;9.88;;
75680;SDS011;64294;49.176;16.626;2023-07-16T01:33:42;15.60;;;10.35;;
75680;SDS011;64294;49.176;16.626;2023-07-16T01:36:10;21.55;;;10.90;;
75680;SDS011;64294;49.176;16.626;2023-07-16T01:38:36;15.52;;;10.32;;
75680;SDS011;64294;49.176;16.626;2023-07-16T01:41:04;18.05;;;10.43;;
75680;SDS011;64294;49.176;16.626;2023-07-16T01:43:30;13.90;;;10.30;;
75680;SDS011;64294;49.176;16.626;2023-07-16T01:45:55;14.75;;;10.15;;
75680;SDS011;64294;49.176;16.626;2023-07-16T01:48:30;13.68;;;10.18;;
75680;SDS011;64294;49.176;16.626;2023-07-16T01:50:58;13.20;;;10.80;;
75680;SDS011;64294;49.176;16.626;2023-07-16T01:53:24;11.02;;;9.98;;
75680;SDS011;64294;49.176;16.626;2023-07-16T01:55:50;14.60;;;10.88;;
75680;SDS011;64294;49.176;16.626;2023-07-16T01:58:15;17.58;;;10.77;;
75680;SDS011;64294;49.176;16.626;2023-07-16T02:00:41;12.18;;;10.90;;
75680;SDS011;64294;49.176;16.626;2023-07-16T02:03:06;12.05;;;10.80;;
75680;SDS011;64294;49.176;16.626;2023-07-16T02:05:31;12.02;;;10.60;;
75680;SDS011;64294;49.176;16.626;2023-07-16T02:07:57;11.85;;;10.70;;
75680;SDS011;64294;49.176;16.626;2023-07-16T02:10:22;12.05;;;10.73;;
75680;SDS011;64294;49.176;16.626;2023-07-16T02:12:48;15.48;;;10.95;;
75680;SDS011;64294;49.176;16.626;2023-07-16T02:15:13;12.05;;;10.70;;
75680;SDS011;64294;49.176;16.626;2023-07-16T02:17:39;12.68;;;11.13;;
75680;SDS011;64294;49.176;16.626;2023-07-16T02:20:04;12.00;;;10.75;;
75680;SDS011;64294;49.176;16.626;2023-07-16T02:22:31;14.93;;;11.70;;
75680;SDS011;64294;49.176;16.626;2023-07-16T02:24:56;12.48;;;11.15;;
75680;SDS011;64294;49.176;16.626;2023-07-16T02:27:22;13.15;;;11.73;;
75680;SDS011;64294;49.176;16.626;2023-07-16T02:29:47;16.23;;;12.57;;
75680;SDS011;64294;49.176;16.626;2023-07-16T02:32:13;13.77;;;12.38;;
75680;SDS011;64294;49.176;16.626;2023-07-16T02:34:38;14.68;;;12.75;;
75680;SDS011;64294;49.176;16.626;2023-07-16T02:37:03;14.25;;;12.75;;
75680;SDS011;64294;49.176;16.626;2023-07-16T02:39:29;15.00;;;13.50;;
75680;SDS011;64294;49.176;16.626;2023-07-16T02:41:54;16.65;;;12.35;;
75680;SDS011;64294;49.176;16.626;2023-07-16T02:44:20;14.55;;;13.05;;
75680;SDS011;64294;49.176;16.626;2023-07-16T02:46:45;15.57;;;12.60;;
75680;SDS011;64294;49.176;16.626;2023-07-16T02:49:10;14.38;;;12.57;;
75680;SDS011;64294;49.176;16.626;2023-07-16T02:51:36;15.90;;;13.70;;
75680;SDS011;64294;49.176;16.626;2023-07-16T02:54:04;14.45;;;12.93;;
75680;SDS011;64294;49.176;16.626;2023-07-16T02:56:29;14.57;;;13.05;;
75680;SDS011;64294;49.176;16.626;2023-07-16T02:58:55;16.23;;;13.07;;
75680;SDS011;64294;49.176;16.626;2023-07-16T03:01:20;16.55;;;13.77;;
75680;SDS011;64294;49.176;16.626;2023-07-16T03:03:46;17.77;;;13.02;;
75680;SDS011;64294;49.176;16.626;2023-07-16T03:06:11;14.80;;;13.25;;
75680;SDS011;64294;49.176;16.626;2023-07-16T03:08:37;18.48;;;13.18;;
75680;SDS011;64294;49.176;16.626;2023-07-16T03:11:02;20.63;;;13.00;;
75680;SDS011;64294;49.176;16.626;2023-07-16T03:13:28;23.73;;;14.38;;
75680;SDS011;64294;49.176;16.626;2023-07-16T03:15:53;25.27;;;14.07;;
75680;SDS011;64294;49.176;16.626;2023-07-16T03:18:18;24.77;;;14.77;;
75680;SDS011;64294;49.176;16.626;2023-07-16T03:20:44;28.55;;;14.68;;
75680;SDS011;64294;49.176;16.626;2023-07-16T03:23:10;29.10;;;15.35;;
75680;SDS011;64294;49.176;16.626;2023-07-16T03:25:35;32.20;;;14.52;;
75680;SDS011;64294;49.176;16.626;2023-07-16T03:28:00;26.70;;;14.55;;
75680;SDS011;64294;49.176;16.626;2023-07-16T03:30:26;30.13;;;15.15;;
75680;SDS011;64294;49.176;16.626;2023-07-16T03:32:51;25.55;;;15.00;;
75680;SDS011;64294;49.176;16.626;2023-07-16T03:35:17;25.70;;;15.23;;
75680;SDS011;64294;49.176;16.626;2023-07-16T03:37:42;22.90;;;15.05;;
75680;SDS011;64294;49.176;16.626;2023-07-16T03:40:17;21.35;;;15.27;;
75680;SDS011;64294;49.176;16.626;2023-07-16T03:42:47;19.70;;;14.60;;
75680;SDS011;64294;49.176;16.626;2023-07-16T03:45:12;22.73;;;14.63;;
75680;SDS011;64294;49.176;16.626;2023-07-16T03:47:38;22.23;;;14.70;;
75680;SDS011;64294;49.176;16.626;2023-07-16T03:50:04;20.83;;;14.18;;
75680;SDS011;64294;49.176;16.626;2023-07-16T03:52:30;26.38;;;14.80;;
75680;SDS011;64294;49.176;16.626;2023-07-16T03:54:55;20.38;;;14.00;;
75680;SDS011;64294;49.176;16.626;2023-07-16T03:57:21;16.13;;;14.38;;
75680;SDS011;64294;49.176;16.626;2023-07-16T03:59:46;16.45;;;14.45;;
75680;SDS011;64294;49.176;16.626;2023-07-16T04:02:13;17.30;;;14.88;;
75680;SDS011;64294;49.176;16.626;2023-07-16T04:04:38;16.38;;;14.65;;
75680;SDS011;64294;49.176;16.626;2023-07-16T04:07:03;16.73;;;14.77;;
75680;SDS011;64294;49.176;16.626;2023-07-16T04:09:29;15.70;;;14.25;;
75680;SDS011;64294;49.176;16.626;2023-07-16T04:11:54;15.73;;;14.13;;
75680;SDS011;64294;49.176;16.626;2023-07-16T04:14:20;18.83;;;14.80;;
75680;SDS011;64294;49.176;16.626;2023-07-16T04:16:45;16.13;;;14.43;;
75680;SDS011;64294;49.176;16.626;2023-07-16T04:19:11;15.55;;;14.02;;
75680;SDS011;64294;49.176;16.626;2023-07-16T04:21:36;19.02;;;14.13;;
75680;SDS011;64294;49.176;16.626;2023-07-16T04:24:02;15.70;;;14.10;;
75680;SDS011;64294;49.176;16.626;2023-07-16T04:26:28;15.98;;;14.38;;
75680;SDS011;64294;49.176;16.626;2023-07-16T04:28:53;16.13;;;14.38;;
75680;SDS011;64294;49.176;16.626;2023-07-16T04:31:19;16.23;;;14.07;;
75680;SDS011;64294;49.176;16.626;2023-07-16T04:33:44;15.23;;;13.05;;
75680;SDS011;64294;49.176;16.626;2023-07-16T04:36:10;15.68;;;13.57;;
75680;SDS011;64294;49.176;16.626;2023-07-16T04:38:35;16.05;;;13.82;;
75680;SDS011;64294;49.176;16.626;2023-07-16T04:41:01;14.93;;;13.48;;
75680;SDS011;64294;49.176;16.626;2023-07-16T04:43:26;14.38;;;12.77;;
75680;SDS011;64294;49.176;16.626;2023-07-16T04:45:52;15.82;;;12.77;;
75680;SDS011;64294;49.176;16.626;2023-07-16T04:48:17;16.05;;;13.00;;
75680;SDS011;64294;49.176;16.626;2023-07-16T04:50:43;21.02;;;13.80;;
75680;SDS011;64294;49.176;16.626;2023-07-16T04:53:08;15.75;;;12.70;;
75680;SDS011;64294;49.176;16.626;2023-07-16T04:55:38;16.95;;;12.90;;
75680;SDS011;64294;49.176;16.626;2023-07-16T04:58:04;14.15;;;12.70;;
75680;SDS011;64294;49.176;16.626;2023-07-16T05:00:33;16.20;;;13.43;;
75680;SDS011;64294;49.176;16.626;2023-07-16T05:02:59;15.38;;;13.40;;
75680;SDS011;64294;49.176;16.626;2023-07-16T05:05:25;14.05;;;12.65;;
75680;SDS011;64294;49.176;16.626;2023-07-16T05:07:50;15.73;;;13.90;;
75680;SDS011;64294;49.176;16.626;2023-07-16T05:10:16;15.02;;;13.43;;
75680;SDS011;64294;49.176;16.626;2023-07-16T05:12:41;14.70;;;13.23;;
75680;SDS011;64294;49.176;16.626;2023-07-16T05:15:07;17.27;;;12.80;;
75680;SDS011;64294;49.176;16.626;2023-07-16T05:17:33;15.38;;;13.40;;
75680;SDS011;64294;49.176;16.626;2023-07-16T05:19:58;14.70;;;12.95;;
75680;SDS011;64294;49.176;16.626;2023-07-16T05:22:24;17.23;;;13.32;;
75680;SDS011;64294;49.176;16.626;2023-07-16T05:24:49;14.77;;;13.27;;
75680;SDS011;64294;49.176;16.626;2023-07-16T05:27:15;14.07;;;11.98;;
75680;SDS011;64294;49.176;16.626;2023-07-16T05:29:40;13.82;;;12.10;;
75680;SDS011;64294;49.176;16.626;2023-07-16T05:32:05;14.02;;;12.20;;
75680;SDS011;64294;49.176;16.626;2023-07-16T05:34:31;13.52;;;12.07;;
75680;SDS011;64294;49.176;16.626;2023-07-16T05:36:56;16.67;;;13.40;;
75680;SDS011;64294;49.176;16.626;2023-07-16T05:39:22;13.88;;;12.40;;
75680;SDS011;64294;49.176;16.626;2023-07-16T05:41:47;15.35;;;12.23;;
75680;SDS011;64294;49.176;16.626;2023-07-16T05:44:13;14.77;;;12.18;;
75680;SDS011;64294;49.176;16.626;2023-07-16T05:46:39;14.98;;;12.27;;
75680;SDS011;64294;49.176;16.626;2023-07-16T05:49:04;19.30;;;12.48;;
75680;SDS011;64294;49.176;16.626;2023-07-16T05:51:30;13.85;;;11.55;;
75680;SDS011;64294;49.176;16.626;2023-07-16T05:53:56;15.88;;;12.70;;
75680;SDS011;64294;49.176;16.626;2023-07-16T05:56:22;14.15;;;11.95;;
75680;SDS011;64294;49.176;16.626;2023-07-16T05:58:47;14.88;;;13.40;;
75680;SDS011;64294;49.176;16.626;2023-07-16T06:01:13;13.77;;;12.45;;
75680;SDS011;64294;49.176;16.626;2023-07-16T06:03:38;13.60;;;12.18;;
75680;SDS011;64294;49.176;16.626;2023-07-16T06:06:04;13.57;;;12.18;;
75680;SDS011;64294;49.176;16.626;2023-07-16T06:08:29;13.30;;;12.10;;
75680;SDS011;64294;49.176;16.626;2023-07-16T06:10:54;12.95;;;11.60;;
75680;SDS011;64294;49.176;16.626;2023-07-16T06:13:20;12.93;;;11.32;;
75680;SDS011;64294;49.176;16.626;2023-07-16T06:15:49;12.25;;;10.90;;
75680;SDS011;64294;49.176;16.626;2023-07-16T06:18:14;14.20;;;10.57;;
75680;SDS011;64294;49.176;16.626;2023-07-16T06:20:43;10.98;;;9.95;;
75680;SDS011;64294;49.176;16.626;2023-07-16T06:23:10;10.82;;;9.70;;
75680;SDS011;64294;49.176;16.626;2023-07-16T06:25:36;11.32;;;9.98;;
75680;SDS011;64294;49.176;16.626;2023-07-16T06:28:02;11.27;;;10.07;;
75680;SDS011;64294;49.176;16.626;2023-07-16T06:30:27;11.90;;;10.00;;
75680;SDS011;64294;49.176;16.626;2023-07-16T06:32:52;11.25;;;9.90;;
75680;SDS011;64294;49.176;16.626;2023-07-16T06:35:18;12.15;;;10.20;;
75680;SDS011;64294;49.176;16.626;2023-07-16T06:37:43;11.77;;;10.18;;
75680;SDS011;64294;49.176;16.626;2023-07-16T06:40:09;10.98;;;9.80;;
75680;SDS011;64294;49.176;16.626;2023-07-16T06:42:37;14.60;;;10.50;;
75680;SDS011;64294;49.176;16.626;2023-07-16T06:45:02;11.07;;;9.88;;
75680;SDS011;64294;49.176;16.626;2023-07-16T06:47:28;12.30;;;10.70;;
75680;SDS011;64294;49.176;16.626;2023-07-16T06:49:54;12.93;;;10.63;;
75680;SDS011;64294;49.176;16.626;2023-07-16T06:52:20;12.07;;;10.45;;
75680;SDS011;64294;49.176;16.626;2023-07-16T06:54:46;12.00;;;10.80;;
75680;SDS011;64294;49.176;16.626;2023-07-16T06:57:11;11.65;;;10.23;;
75680;SDS011;64294;49.176;16.626;2023-07-16T06:59:37;12.48;;;10.10;;
75680;SDS011;64294;49.176;16.626;2023-07-16T07:02:02;11.93;;;9.63;;
75680;SDS011;64294;49.176;16.626;2023-07-16T07:04:28;11.75;;;9.40;;
75680;SDS011;64294;49.176;16.626;2023-07-16T07:06:53;10.43;;;9.32;;
75680;SDS011;64294;49.176;16.626;2023-07-16T07:09:19;10.27;;;9.20;;
75680;SDS011;64294;49.176;16.626;2023-07-16T07:11:44;12.07;;;9.60;;
75680;SDS011;64294;49.176;16.626;2023-07-16T07:14:09;11.32;;;9.88;;
75680;SDS011;64294;49.176;16.626;2023-07-16T07:16:35;12.07;;;9.73;;
75680;SDS011;64294;49.176;16.626;2023-07-16T07:19:00;10.15;;;7.97;;
75680;SDS011;64294;49.176;16.626;2023-07-16T07:21:26;9.45;;;7.45;;
75680;SDS011;64294;49.176;16.626;2023-07-16T07:23:51;10.55;;;7.15;;
75680;SDS011;64294;49.176;16.626;2023-07-16T07:26:17;11.05;;;6.30;;
75680;SDS011;64294;49.176;16.626;2023-07-16T07:28:42;8.32;;;6.32;;
75680;SDS011;64294;49.176;16.626;2023-07-16T07:31:07;9.57;;;6.50;;
75680;SDS011;64294;49.176;16.626;2023-07-16T07:33:33;12.40;;;6.63;;
75680;SDS011;64294;49.176;16.626;2023-07-16T07:35:58;8.50;;;6.05;;
75680;SDS011;64294;49.176;16.626;2023-07-16T07:38:24;7.88;;;5.97;;
75680;SDS011;64294;49.176;16.626;2023-07-16T07:40:49;9.30;;;5.80;;
75680;SDS011;64294;49.176;16.626;2023-07-16T07:43:15;12.93;;;5.53;;
75680;SDS011;64294;49.176;16.626;2023-07-16T07:45:40;11.82;;;5.70;;
75680;SDS011;64294;49.176;16.626;2023-07-16T07:48:05;8.23;;;5.55;;
75680;SDS011;64294;49.176;16.626;2023-07-16T07:50:31;9.68;;;5.82;;
75680;SDS011;64294;49.176;16.626;2023-07-16T07:52:56;9.45;;;5.93;;
75680;SDS011;64294;49.176;16.626;2023-07-16T07:55:22;9.60;;;5.32;;
75680;SDS011;64294;49.176;16.626;2023-07-16T07:57:47;9.80;;;5.20;;
75680;SDS011;64294;49.176;16.626;2023-07-16T08:00:12;9.82;;;5.32;;
75680;SDS011;64294;49.176;16.626;2023-07-16T08:02:38;8.70;;;4.97;;
75680;SDS011;64294;49.176;16.626;2023-07-16T08:05:07;7.22;;;5.38;;
75680;SDS011;64294;49.176;16.626;2023-07-16T08:07:32;6.68;;;4.85;;
75680;SDS011;64294;49.176;16.626;2023-07-16T08:09:58;10.50;;;4.80;;
75680;SDS011;64294;49.176;16.626;2023-07-16T08:12:23;6.80;;;4.75;;
75680;SDS011;64294;49.176;16.626;2023-07-16T08:14:49;7.13;;;4.00;;
75680;SDS011;64294;49.176;16.626;2023-07-16T08:17:14;7.20;;;3.78;;
75680;SDS011;64294;49.176;16.626;2023-07-16T08:19:40;6.75;;;3.20;;
75680;SDS011;64294;49.176;16.626;2023-07-16T08:22:05;7.22;;;2.90;;
75680;SDS011;64294;49.176;16.626;2023-07-16T08:24:31;5.05;;;2.50;;
75680;SDS011;64294;49.176;16.626;2023-07-16T08:26:56;4.53;;;2.42;;
75680;SDS011;64294;49.176;16.626;2023-07-16T08:29:21;6.00;;;2.50;;
75680;SDS011;64294;49.176;16.626;2023-07-16T08:31:47;4.70;;;2.50;;
75680;SDS011;64294;49.176;16.626;2023-07-16T08:34:12;4.05;;;2.45;;
75680;SDS011;64294;49.176;16.626;2023-07-16T08:36:38;6.32;;;2.40;;
75680;SDS011;64294;49.176;16.626;2023-07-16T08:39:03;4.07;;;2.60;;
75680;SDS011;64294;49.176;16.626;2023-07-16T08:41:29;3.88;;;2.50;;
75680;SDS011;64294;49.176;16.626;2023-07-16T08:43:55;3.05;;;2.47;;
75680;SDS011;64294;49.176;16.626;2023-07-16T08:46:21;6.70;;;3.10;;
75680;SDS011;64294;49.176;16.626;2023-07-16T08:48:48;3.88;;;2.75;;
75680;SDS011;64294;49.176;16.626;2023-07-16T08:51:14;5.45;;;2.67;;
75680;SDS011;64294;49.176;16.626;2023-07-16T08:53:40;5.28;;;3.70;;
75680;SDS011;64294;49.176;16.626;2023-07-16T08:56:06;12.10;;;3.97;;
75680;SDS011;64294;49.176;16.626;2023-07-16T08:58:31;7.75;;;3.88;;
75680;SDS011;64294;49.176;16.626;2023-07-16T09:00:59;6.80;;;3.90;;
75680;SDS011;64294;49.176;16.626;2023-07-16T09:03:25;8.23;;;3.97;;
75680;SDS011;64294;49.176;16.626;2023-07-16T09:05:51;6.05;;;3.92;;
75680;SDS011;64294;49.176;16.626;2023-07-16T09:08:19;6.68;;;3.80;;
75680;SDS011;64294;49.176;16.626;2023-07-16T09:10:44;8.65;;;3.92;;
75680;SDS011;64294;49.176;16.626;2023-07-16T09:13:18;12.20;;;4.07;;
75680;SDS011;64294;49.176;16.626;2023-07-16T09:15:50;6.30;;;3.70;;
75680;SDS011;64294;49.176;16.626;2023-07-16T09:18:19;5.22;;;3.50;;
75680;SDS011;64294;49.176;16.626;2023-07-16T09:20:55;10.18;;;3.75;;
75680;SDS011;64294;49.176;16.626;2023-07-16T09:23:23;5.95;;;3.38;;
75680;SDS011;64294;49.176;16.626;2023-07-16T09:25:50;5.53;;;3.95;;
75680;SDS011;64294;49.176;16.626;2023-07-16T09:28:18;7.53;;;3.72;;
75680;SDS011;64294;49.176;16.626;2023-07-16T09:30:44;6.03;;;4.07;;
75680;SDS011;64294;49.176;16.626;2023-07-16T09:33:19;5.72;;;3.88;;
75680;SDS011;64294;49.176;16.626;2023-07-16T09:35:49;8.00;;;3.75;;
75680;SDS011;64294;49.176;16.626;2023-07-16T09:38:15;5.75;;;3.80;;
75680;SDS011;64294;49.176;16.626;2023-07-16T09:40:41;12.05;;;4.00;;
75680;SDS011;64294;49.176;16.626;2023-07-16T09:43:10;5.40;;;3.63;;
75680;SDS011;64294;49.176;16.626;2023-07-16T09:45:36;5.15;;;3.65;;
75680;SDS011;64294;49.176;16.626;2023-07-16T09:48:02;5.55;;;4.25;;
75680;SDS011;64294;49.176;16.626;2023-07-16T09:50:29;6.50;;;4.05;;
75680;SDS011;64294;49.176;16.626;2023-07-16T09:52:57;8.48;;;4.43;;
75680;SDS011;64294;49.176;16.626;2023-07-16T09:55:23;6.38;;;4.15;;
75680;SDS011;64294;49.176;16.626;2023-07-16T09:57:50;9.25;;;4.32;;
75680;SDS011;64294;49.176;16.626;2023-07-16T10:00:18;6.45;;;4.60;;
75680;SDS011;64294;49.176;16.626;2023-07-16T10:02:45;5.43;;;4.00;;
75680;SDS011;64294;49.176;16.626;2023-07-16T10:05:15;5.47;;;4.40;;
75680;SDS011;64294;49.176;16.626;2023-07-16T10:07:40;8.27;;;4.65;;
75680;SDS011;64294;49.176;16.626;2023-07-16T10:10:08;6.32;;;4.40;;
75680;SDS011;64294;49.176;16.626;2023-07-16T10:12:34;6.70;;;4.10;;
75680;SDS011;64294;49.176;16.626;2023-07-16T10:15:01;6.38;;;4.32;;
75680;SDS011;64294;49.176;16.626;2023-07-16T10:17:29;5.93;;;4.47;;
75680;SDS011;64294;49.176;16.626;2023-07-16T10:19:57;5.97;;;4.18;;
75680;SDS011;64294;49.176;16.626;2023-07-16T10:22:39;6.72;;;4.00;;
75680;SDS011;64294;49.176;16.626;2023-07-16T10:27:35;6.57;;;4.50;;
75680;SDS011;64294;49.176;16.626;2023-07-16T10:30:02;5.78;;;4.05;;
75680;SDS011;64294;49.176;16.626;2023-07-16T10:32:32;5.18;;;4.32;;
75680;SDS011;64294;49.176;16.626;2023-07-16T10:34:59;5.50;;;4.03;;
75680;SDS011;64294;49.176;16.626;2023-07-16T10:37:25;4.93;;;4.30;;
75680;SDS011;64294;49.176;16.626;2023-07-16T10:39:52;5.25;;;3.45;;
75680;SDS011;64294;49.176;16.626;2023-07-16T10:42:19;4.35;;;3.50;;
75680;SDS011;64294;49.176;16.626;2023-07-16T10:44:48;5.57;;;3.85;;
75680;SDS011;64294;49.176;16.626;2023-07-16T10:47:18;4.25;;;3.50;;
75680;SDS011;64294;49.176;16.626;2023-07-16T10:49:46;7.82;;;3.70;;
75680;SDS011;64294;49.176;16.626;2023-07-16T10:52:11;6.63;;;3.40;;
75680;SDS011;64294;49.176;16.626;2023-07-16T10:54:39;4.53;;;3.60;;
75680;SDS011;64294;49.176;16.626;2023-07-16T10:57:05;5.30;;;3.60;;
75680;SDS011;64294;49.176;16.626;2023-07-16T10:59:31;5.30;;;3.60;;
75680;SDS011;64294;49.176;16.626;2023-07-16T11:01:57;4.03;;;3.53;;
75680;SDS011;64294;49.176;16.626;2023-07-16T11:04:23;5.28;;;3.40;;
75680;SDS011;64294;49.176;16.626;2023-07-16T11:06:52;7.85;;;3.10;;
75680;SDS011;64294;49.176;16.626;2023-07-16T11:09:17;4.07;;;2.75;;
75680;SDS011;64294;49.176;16.626;2023-07-16T11:11:43;7.55;;;3.08;;
75680;SDS011;64294;49.176;16.626;2023-07-16T11:14:08;3.65;;;3.25;;
75680;SDS011;64294;49.176;16.626;2023-07-16T11:16:37;4.65;;;3.10;;
75680;SDS011;64294;49.176;16.626;2023-07-16T11:19:05;3.38;;;2.88;;
75680;SDS011;64294;49.176;16.626;2023-07-16T11:21:35;4.72;;;3.10;;
75680;SDS011;64294;49.176;16.626;2023-07-16T11:24:08;5.90;;;2.70;;
75680;SDS011;64294;49.176;16.626;2023-07-16T11:26:48;5.35;;;3.00;;
75680;SDS011;64294;49.176;16.626;2023-07-16T11:29:15;3.40;;;2.70;;
75680;SDS011;64294;49.176;16.626;2023-07-16T11:31:40;7.20;;;2.80;;
75680;SDS011;64294;49.176;16.626;2023-07-16T11:34:15;4.70;;;2.83;;
75680;SDS011;64294;49.176;16.626;2023-07-16T11:36:41;5.32;;;2.90;;
75680;SDS011;64294;49.176;16.626;2023-07-16T11:39:06;4.55;;;2.83;;
75680;SDS011;64294;49.176;16.626;2023-07-16T11:41:32;3.33;;;2.60;;
75680;SDS011;64294;49.176;16.626;2023-07-16T11:44:00;3.03;;;2.30;;
75680;SDS011;64294;49.176;16.626;2023-07-16T11:46:30;21.25;;;4.57;;
75680;SDS011;64294;49.176;16.626;2023-07-16T11:49:00;6.38;;;2.80;;
75680;SDS011;64294;49.176;16.626;2023-07-16T11:51:26;7.95;;;2.88;;
75680;SDS011;64294;49.176;16.626;2023-07-16T11:53:51;7.53;;;2.97;;
75680;SDS011;64294;49.176;16.626;2023-07-16T11:56:17;3.70;;;2.40;;
75680;SDS011;64294;49.176;16.626;2023-07-16T11:58:42;4.68;;;2.50;;
75680;SDS011;64294;49.176;16.626;2023-07-16T12:01:08;3.72;;;2.72;;
75680;SDS011;64294;49.176;16.626;2023-07-16T12:03:34;4.65;;;2.38;;
75680;SDS011;64294;49.176;16.626;2023-07-16T12:06:00;3.03;;;2.30;;
75680;SDS011;64294;49.176;16.626;2023-07-16T12:08:25;3.53;;;2.30;;
75680;SDS011;64294;49.176;16.626;2023-07-16T12:10:50;4.15;;;2.78;;
75680;SDS011;64294;49.176;16.626;2023-07-16T12:13:16;2.95;;;2.30;;
75680;SDS011;64294;49.176;16.626;2023-07-16T12:15:42;2.97;;;2.22;;
75680;SDS011;64294;49.176;16.626;2023-07-16T12:18:07;6.32;;;2.35;;
75680;SDS011;64294;49.176;16.626;2023-07-16T12:20:33;2.72;;;2.30;;
75680;SDS011;64294;49.176;16.626;2023-07-16T12:22:59;3.38;;;2.55;;
75680;SDS011;64294;49.176;16.626;2023-07-16T12:25:25;2.50;;;2.22;;
75680;SDS011;64294;49.176;16.626;2023-07-16T12:27:50;14.98;;;3.40;;
75680;SDS011;64294;49.176;16.626;2023-07-16T12:30:16;4.63;;;2.50;;
75680;SDS011;64294;49.176;16.626;2023-07-16T12:32:41;2.72;;;2.30;;
75680;SDS011;64294;49.176;16.626;2023-07-16T12:35:06;4.30;;;2.42;;
75680;SDS011;64294;49.176;16.626;2023-07-16T12:37:32;3.70;;;2.28;;
75680;SDS011;64294;49.176;16.626;2023-07-16T12:39:57;3.00;;;2.33;;
75680;SDS011;64294;49.176;16.626;2023-07-16T12:42:23;3.75;;;2.20;;
75680;SDS011;64294;49.176;16.626;2023-07-16T12:44:48;2.60;;;2.10;;
75680;SDS011;64294;49.176;16.626;2023-07-16T12:47:15;2.85;;;2.10;;
75680;SDS011;64294;49.176;16.626;2023-07-16T12:49:40;2.65;;;2.30;;
75680;SDS011;64294;49.176;16.626;2023-07-16T12:52:06;3.38;;;2.10;;
75680;SDS011;64294;49.176;16.626;2023-07-16T12:54:32;3.10;;;2.20;;
75680;SDS011;64294;49.176;16.626;2023-07-16T12:56:57;4.85;;;2.20;;
75680;SDS011;64294;49.176;16.626;2023-07-16T12:59:23;2.47;;;2.20;;
75680;SDS011;64294;49.176;16.626;2023-07-16T13:01:49;3.60;;;2.20;;
75680;SDS011;64294;49.176;16.626;2023-07-16T13:04:15;3.55;;;2.13;;
75680;SDS011;64294;49.176;16.626;2023-07-16T13:06:40;3.08;;;2.20;;
75680;SDS011;64294;49.176;16.626;2023-07-16T13:09:07;2.45;;;2.10;;
75680;SDS011;64294;49.176;16.626;2023-07-16T13:11:32;2.95;;;2.38;;
75680;SDS011;64294;49.176;16.626;2023-07-16T13:13:58;3.35;;;2.20;;
75680;SDS011;64294;49.176;16.626;2023-07-16T13:16:23;2.92;;;2.00;;
75680;SDS011;64294;49.176;16.626;2023-07-16T13:18:48;4.22;;;2.40;;
75680;SDS011;64294;49.176;16.626;2023-07-16T13:21:14;3.33;;;2.50;;
75680;SDS011;64294;49.176;16.626;2023-07-16T13:23:39;3.63;;;2.40;;
75680;SDS011;64294;49.176;16.626;2023-07-16T13:26:04;2.55;;;2.10;;
75680;SDS011;64294;49.176;16.626;2023-07-16T13:28:30;2.45;;;2.20;;
75680;SDS011;64294;49.176;16.626;2023-07-16T13:30:55;2.30;;;2.10;;
75680;SDS011;64294;49.176;16.626;2023-07-16T13:33:21;2.17;;;1.95;;
75680;SDS011;64294;49.176;16.626;2023-07-16T13:35:48;2.35;;;2.00;;
75680;SDS011;64294;49.176;16.626;2023-07-16T13:38:13;2.28;;;2.00;;
75680;SDS011;64294;49.176;16.626;2023-07-16T13:40:38;2.20;;;1.90;;
75680;SDS011;64294;49.176;16.626;2023-07-16T13:43:04;2.50;;;1.90;;
75680;SDS011;64294;49.176;16.626;2023-07-16T13:45:29;2.55;;;2.00;;
75680;SDS011;64294;49.176;16.626;2023-07-16T13:47:58;1.80;;;1.70;;
75680;SDS011;64294;49.176;16.626;2023-07-16T13:50:23;2.67;;;2.30;;
75680;SDS011;64294;49.176;16.626;2023-07-16T13:52:48;2.67;;;1.90;;
75680;SDS011;64294;49.176;16.626;2023-07-16T13:55:14;4.15;;;1.83;;
75680;SDS011;64294;49.176;16.626;2023-07-16T13:57:39;2.50;;;2.10;;
75680;SDS011;64294;49.176;16.626;2023-07-16T14:00:06;3.08;;;2.00;;
75680;SDS011;64294;49.176;16.626;2023-07-16T14:02:34;2.28;;;2.00;;
75680;SDS011;64294;49.176;16.626;2023-07-16T14:05:00;3.60;;;2.22;;
75680;SDS011;64294;49.176;16.626;2023-07-16T14:07:25;2.35;;;2.00;;
75680;SDS011;64294;49.176;16.626;2023-07-16T14:09:51;1.73;;;1.60;;
75680;SDS011;64294;49.176;16.626;2023-07-16T14:12:16;1.67;;;1.58;;
75680;SDS011;64294;49.176;16.626;2023-07-16T14:14:41;3.22;;;1.67;;
75680;SDS011;64294;49.176;16.626;2023-07-16T14:17:07;1.70;;;1.60;;
75680;SDS011;64294;49.176;16.626;2023-07-16T14:19:32;2.08;;;1.83;;
75680;SDS011;64294;49.176;16.626;2023-07-16T14:21:58;4.30;;;2.75;;
75680;SDS011;64294;49.176;16.626;2023-07-16T14:24:23;5.20;;;3.08;;
75680;SDS011;64294;49.176;16.626;2023-07-16T14:26:48;9.23;;;4.18;;
75680;SDS011;64294;49.176;16.626;2023-07-16T14:29:14;6.03;;;3.40;;